createdAt,value
2023-05-24T04:14:24.735Z,8.90
2023-05-24T04:16:53.825Z,8.90
2023-05-24T04:19:22.314Z,8.90
2023-05-24T04:21:51.091Z,8.90
2023-05-24T04:24:19.118Z,8.90
2023-05-24T04:26:47.775Z,9.00
2023-05-24T04:29:15.929Z,9.00
2023-05-24T04:31:45.583Z,9.10
2023-05-24T04:34:14.728Z,9.20
2023-05-24T04:36:42.940Z,9.30
2023-05-24T04:39:11.871Z,9.40
2023-05-24T04:41:40.681Z,9.50
2023-05-24T04:44:08.977Z,9.60
2023-05-24T04:46:37.413Z,9.70
2023-05-24T04:49:08.649Z,9.80
2023-05-24T04:51:38.866Z,9.90
2023-05-24T04:54:09.480Z,9.90
2023-05-24T04:56:39.791Z,10.00
2023-05-24T04:59:08.453Z,10.10
2023-05-24T05:01:37.383Z,10.20
2023-05-24T05:04:08.166Z,10.30
2023-05-24T05:06:39.618Z,10.40
2023-05-24T05:09:09.574Z,10.40
2023-05-24T05:11:38.070Z,10.50
2023-05-24T05:14:06.528Z,10.60
2023-05-24T05:16:34.613Z,10.60
2023-05-24T05:19:04.622Z,10.60
2023-05-24T05:21:35.092Z,10.60
2023-05-24T05:24:03.820Z,10.60
2023-05-24T05:26:32.368Z,10.60
2023-05-24T05:29:00.492Z,10.60
2023-05-24T05:31:28.626Z,10.60
2023-05-24T05:33:56.678Z,10.60
2023-05-24T05:36:24.773Z,10.70
2023-05-24T05:38:54.697Z,10.70
2023-05-24T05:41:23.093Z,10.80
2023-05-24T05:43:51.212Z,10.90
2023-05-24T05:46:20.938Z,11.00
2023-05-24T05:48:49.202Z,11.10
2023-05-24T05:51:17.408Z,11.30
2023-05-24T05:53:45.485Z,11.40
2023-05-24T05:56:14.909Z,11.50
2023-05-24T05:58:42.966Z,11.60
2023-05-24T06:01:11.232Z,11.70
2023-05-24T06:03:39.584Z,11.70
2023-05-24T06:06:08.182Z,11.80
2023-05-24T06:08:36.600Z,11.90
2023-05-24T06:11:04.883Z,11.90
2023-05-24T06:13:34.312Z,11.90
2023-05-24T06:16:02.476Z,11.90
2023-05-24T06:18:32.678Z,11.90
2023-05-24T06:21:00.858Z,12.00
2023-05-24T06:23:29.028Z,12.00
2023-05-24T06:25:57.413Z,12.10
2023-05-24T06:28:25.639Z,12.20
2023-05-24T06:30:55.210Z,12.20
2023-05-24T06:33:23.426Z,12.20
2023-05-24T06:35:51.468Z,12.30
2023-05-24T06:38:19.580Z,12.40
2023-05-24T06:40:47.782Z,12.40
2023-05-24T06:43:16.262Z,12.40
2023-05-24T06:45:44.444Z,12.50
2023-05-24T06:48:14.440Z,12.50
2023-05-24T06:50:42.997Z,12.60
2023-05-24T06:53:11.789Z,12.60
2023-05-24T06:55:40.038Z,12.80
2023-05-24T06:58:08.170Z,12.90
2023-05-24T07:00:36.255Z,12.90
2023-05-24T07:03:04.781Z,13.00
2023-05-24T07:05:34.937Z,13.10
2023-05-24T07:08:03.088Z,13.10
2023-05-24T07:10:31.304Z,13.10
2023-05-24T07:12:59.508Z,13.30
2023-05-24T07:15:27.582Z,13.30
2023-05-24T07:17:55.902Z,13.40
2023-05-24T07:20:24.077Z,13.50
2023-05-24T07:22:53.575Z,13.50
2023-05-24T07:25:23.101Z,13.50
2023-05-24T07:27:51.459Z,13.60
2023-05-24T07:30:31.202Z,13.50
2023-05-24T07:33:01.939Z,13.50
2023-05-24T07:35:31.176Z,13.50
2023-05-24T07:38:00.810Z,13.60
2023-05-24T07:40:29.054Z,13.70
2023-05-24T07:42:57.196Z,13.80
2023-05-24T07:45:25.668Z,13.90
2023-05-24T07:47:56.549Z,14.00
2023-05-24T07:50:25.556Z,14.00
2023-05-24T07:52:55.012Z,13.90
2023-05-24T07:55:25.048Z,13.90
2023-05-24T07:57:53.768Z,13.90
2023-05-24T08:00:23.215Z,13.90
2023-05-24T08:02:52.579Z,14.00
2023-05-24T08:05:20.836Z,14.00
2023-05-24T08:07:49.092Z,14.10
2023-05-24T08:10:19.083Z,14.20
2023-05-24T08:12:50.683Z,14.20
2023-05-24T08:15:19.183Z,14.30
2023-05-24T08:17:47.422Z,14.30
2023-05-24T08:20:16.091Z,14.30
2023-05-24T08:22:45.118Z,14.40
2023-05-24T08:25:13.299Z,14.70
2023-05-24T08:27:41.838Z,14.80
2023-05-24T08:30:13.526Z,14.90
2023-05-24T08:32:41.812Z,15.20
2023-05-24T08:35:19.452Z,15.40
2023-05-24T08:37:49.921Z,15.50
2023-05-24T08:40:18.462Z,15.50
2023-05-24T08:42:47.065Z,15.50
2023-05-24T08:45:16.821Z,15.70
2023-05-24T08:47:46.368Z,15.90
2023-05-24T08:50:14.769Z,16.10
2023-05-24T08:52:44.312Z,16.30
2023-05-24T08:55:13.110Z,16.40
2023-05-24T08:57:41.940Z,16.60
2023-05-24T09:00:12.927Z,16.70
2023-05-24T09:02:44.704Z,16.90
2023-05-24T09:05:14.640Z,16.70
2023-05-24T09:07:44.614Z,16.80
2023-05-24T09:10:13.075Z,16.90
2023-05-24T09:12:45.366Z,17.00
2023-05-24T09:15:13.767Z,16.90
2023-05-24T09:17:44.254Z,16.90
2023-05-24T09:20:13.979Z,16.90
2023-05-24T09:22:44.031Z,16.80
2023-05-24T09:25:14.963Z,16.80
2023-05-24T09:27:45.626Z,16.70
2023-05-24T09:30:16.828Z,16.70
2023-05-24T09:32:57.371Z,16.60
2023-05-24T09:35:26.900Z,16.70
2023-05-24T09:37:59.954Z,16.90
2023-05-24T09:40:29.793Z,16.90
2023-05-24T09:43:08.120Z,17.10
2023-05-24T09:45:43.003Z,17.20
2023-05-24T09:48:14.327Z,17.30
2023-05-24T09:50:43.077Z,17.30
2023-05-24T09:53:11.410Z,17.40
2023-05-24T09:55:39.701Z,17.60
2023-05-24T09:58:09.522Z,17.70
2023-05-24T10:00:42.513Z,17.80
2023-05-24T10:03:15.097Z,18.20
2023-05-24T10:05:45.785Z,18.60
2023-05-24T10:08:14.342Z,18.80
2023-05-24T10:10:44.694Z,19.00
2023-05-24T10:13:15.986Z,19.20
2023-05-24T10:15:45.415Z,19.40
2023-05-24T10:18:14.896Z,19.40
2023-05-24T10:20:44.309Z,19.30
2023-05-24T10:23:19.198Z,19.20
2023-05-24T10:25:55.879Z,19.10
2023-05-24T10:28:25.306Z,18.90
2023-05-24T10:31:03.195Z,18.80
2023-05-24T10:33:37.386Z,18.90
2023-05-24T10:36:09.878Z,19.00
2023-05-24T10:38:40.522Z,19.50
2023-05-24T10:41:09.371Z,19.90
2023-05-24T10:43:38.785Z,20.20
2023-05-24T10:46:10.781Z,20.20
2023-05-24T10:48:42.605Z,20.50
2023-05-24T10:51:31.058Z,20.40
2023-05-24T10:53:59.790Z,20.60
2023-05-24T10:56:29.658Z,20.90
2023-05-24T10:59:02.786Z,21.00
2023-05-24T11:01:32.547Z,21.30
2023-05-24T11:04:17.290Z,21.50
2023-05-24T11:06:50.896Z,21.40
2023-05-24T11:09:21.932Z,21.60
2023-05-24T11:11:55.870Z,21.70
2023-05-24T11:14:26.465Z,21.60
2023-05-24T11:16:54.985Z,21.90
2023-05-24T11:19:25.755Z,22.10
2023-05-24T11:21:54.796Z,22.50
2023-05-24T11:24:23.849Z,22.60
2023-05-24T11:26:53.139Z,22.60
2023-05-24T11:29:22.922Z,22.40
2023-05-24T11:31:52.677Z,22.20
2023-05-24T11:34:21.578Z,22.20
2023-05-24T11:36:53.574Z,22.20
2023-05-24T11:39:22.155Z,22.30
2023-05-24T11:41:51.089Z,22.40
2023-05-24T11:44:23.519Z,22.60
2023-05-24T11:46:58.149Z,22.80
2023-05-24T11:49:27.064Z,22.90
2023-05-24T11:51:57.831Z,23.00
2023-05-24T11:54:26.862Z,23.00
2023-05-24T11:56:55.955Z,23.20
2023-05-24T11:59:26.729Z,23.10
2023-05-24T12:02:02.138Z,23.20
2023-05-24T12:04:30.911Z,23.30
2023-05-24T12:07:01.151Z,23.40
2023-05-24T12:09:31.419Z,23.40
2023-05-24T12:11:59.639Z,23.50
2023-05-24T12:14:30.950Z,23.50
2023-05-24T12:16:59.925Z,23.40
2023-05-24T12:19:34.678Z,23.10
2023-05-24T12:22:06.688Z,23.00
2023-05-24T12:24:35.591Z,23.00
2023-05-24T12:27:07.433Z,22.80
2023-05-24T12:29:37.165Z,22.70
2023-05-24T12:32:06.473Z,22.80
2023-05-24T12:34:34.751Z,22.70
2023-05-24T12:37:05.374Z,22.70
2023-05-24T12:39:35.354Z,22.80
2023-05-24T12:42:04.893Z,22.80
2023-05-24T12:44:35.183Z,22.70
2023-05-24T12:47:04.832Z,22.50
2023-05-24T12:49:33.295Z,22.50
2023-05-24T12:52:02.735Z,22.40
2023-05-24T12:54:32.321Z,22.50
2023-05-24T12:57:02.590Z,22.60
2023-05-24T12:59:31.083Z,22.80
2023-05-24T13:01:59.304Z,22.90
2023-05-24T13:04:28.167Z,22.90
2023-05-24T13:06:56.596Z,23.10
2023-05-24T13:09:26.061Z,23.00
2023-05-24T13:11:56.849Z,23.00
2023-05-24T13:14:25.019Z,22.90
2023-05-24T13:16:53.699Z,23.00
2023-05-24T13:19:21.894Z,23.30
2023-05-24T13:21:50.070Z,23.50
2023-05-24T13:24:18.721Z,23.40
2023-05-24T13:26:47.054Z,23.30
2023-05-24T13:31:47.574Z,23.20
2023-05-24T13:34:15.766Z,23.30
2023-05-24T13:36:44.565Z,23.40
2023-05-24T13:42:01.270Z,23.50
2023-05-24T13:44:30.900Z,23.40
2023-05-24T13:46:59.500Z,23.30
2023-05-24T13:47:40.916Z,23.50
2023-05-24T13:49:27.704Z,23.40
2023-05-24T13:51:58.438Z,23.50
2023-05-24T13:54:28.259Z,23.40
2023-05-24T13:56:57.858Z,23.40
2023-05-24T13:59:27.127Z,23.30
2023-05-24T14:01:59.095Z,23.40
2023-05-24T14:04:27.320Z,23.60
2023-05-24T14:06:55.498Z,23.30
2023-05-24T14:09:23.641Z,23.40
2023-05-24T14:11:51.930Z,23.30
2023-05-24T14:14:58.647Z,23.20
2023-05-24T14:17:09.655Z,23.20
2023-05-24T14:19:38.329Z,23.50
2023-05-24T14:22:07.159Z,23.60
2023-05-24T14:24:35.254Z,23.40
2023-05-24T14:27:04.539Z,23.30
2023-05-24T14:29:33.298Z,23.00
2023-05-24T14:32:01.496Z,23.10
2023-05-24T14:34:30.992Z,23.00
2023-05-24T14:36:59.410Z,23.00
2023-05-24T14:39:27.582Z,22.90
2023-05-24T14:41:56.116Z,23.00
2023-05-24T14:44:24.403Z,23.00
2023-05-24T14:46:55.284Z,23.00
2023-05-24T14:49:24.104Z,22.70
2023-05-24T14:51:53.823Z,22.50
2023-05-24T14:54:22.465Z,22.50
2023-05-24T14:56:50.566Z,22.40
2023-05-24T14:59:18.900Z,22.30
2023-05-24T15:01:47.678Z,22.50
2023-05-24T15:04:16.235Z,22.80
2023-05-24T15:06:45.247Z,22.80
2023-05-24T15:09:15.544Z,22.80
2023-05-24T15:11:44.038Z,22.60
2023-05-24T15:14:23.617Z,22.50
2023-05-24T15:16:52.587Z,22.40
2023-05-24T15:19:21.639Z,22.30
2023-05-24T15:21:51.381Z,22.30
2023-05-24T15:24:22.532Z,22.30
2023-05-24T15:26:51.370Z,22.40
2023-05-24T15:29:21.472Z,22.50
2023-05-24T15:31:50.375Z,22.60
2023-05-24T15:34:18.723Z,22.70
2023-05-24T15:36:49.126Z,22.70
2023-05-24T15:39:21.663Z,22.50
2023-05-24T15:41:50.043Z,22.30
2023-05-24T15:44:18.942Z,22.30
2023-05-24T15:46:47.899Z,22.10
2023-05-24T15:49:16.604Z,22.00
2023-05-24T15:54:16.540Z,21.80
2023-05-24T15:56:47.172Z,21.80
2023-05-24T15:59:15.776Z,21.80
2023-05-24T16:01:44.296Z,21.80
2023-05-24T16:04:13.076Z,21.80
2023-05-24T16:06:41.725Z,21.90
2023-05-24T16:09:10.100Z,21.90
2023-05-24T16:11:38.585Z,21.80
2023-05-24T16:14:08.674Z,21.70
2023-05-24T16:16:36.963Z,21.60
2023-05-24T16:19:05.072Z,21.50
2023-05-24T16:21:33.719Z,21.60
2023-05-24T16:24:03.346Z,21.60
2023-05-24T16:26:32.170Z,21.40
2023-05-24T16:29:01.738Z,21.50
2023-05-24T16:31:31.399Z,21.40
2023-05-24T16:34:00.960Z,21.30
2023-05-24T16:36:29.267Z,21.30
2023-05-24T16:38:57.334Z,21.20
2023-05-24T16:41:25.445Z,21.10
2023-05-24T16:43:53.519Z,21.10
2023-05-24T16:46:23.236Z,21.10
2023-05-24T16:48:53.352Z,21.00
2023-05-24T16:51:21.423Z,21.00
2023-05-24T16:53:49.623Z,20.80
2023-05-24T16:56:17.928Z,20.80
2023-05-24T16:58:46.071Z,20.80
2023-05-24T17:01:14.172Z,20.70
2023-05-24T17:03:42.403Z,20.60
2023-05-24T17:06:12.307Z,20.50
2023-05-24T17:08:41.391Z,20.40
2023-05-24T17:11:09.856Z,20.30
2023-05-24T17:13:38.082Z,20.40
2023-05-24T17:16:07.907Z,20.40
2023-05-24T17:18:36.999Z,20.20
2023-05-24T17:21:14.342Z,20.10
2023-05-24T17:23:44.047Z,20.00
2023-05-24T17:26:15.186Z,20.10
2023-05-24T17:28:46.194Z,19.90
2023-05-24T17:31:16.825Z,20.00
2023-05-24T17:33:45.184Z,19.90
2023-05-24T17:36:14.097Z,20.00
2023-05-24T17:38:43.847Z,19.90
2023-05-24T17:41:11.934Z,19.80
2023-05-24T17:43:40.549Z,19.80
2023-05-24T17:46:09.625Z,19.70
2023-05-24T17:48:38.883Z,19.60
2023-05-24T17:51:08.529Z,19.50
2023-05-24T17:53:37.661Z,19.30
2023-05-24T17:56:07.917Z,19.30
2023-05-24T17:58:38.062Z,19.20
2023-05-24T18:01:10.349Z,19.10
2023-05-24T18:03:40.646Z,19.10
2023-05-24T18:06:09.596Z,19.00
2023-05-24T18:08:43.434Z,18.80
2023-05-24T18:11:14.042Z,18.90
2023-05-24T18:13:45.005Z,18.90
2023-05-24T18:16:13.734Z,18.80
2023-05-24T18:18:43.768Z,18.60
2023-05-24T18:21:14.126Z,18.60
2023-05-24T18:23:45.531Z,18.60
2023-05-24T18:26:17.845Z,18.60
2023-05-24T18:28:45.940Z,18.70
2023-05-24T18:31:14.769Z,18.60
2023-05-24T18:33:43.255Z,18.50
2023-05-24T18:36:12.781Z,18.60
2023-05-24T18:38:41.120Z,18.50
2023-05-24T18:41:11.921Z,18.50
2023-05-24T18:43:42.826Z,18.30
2023-05-24T18:46:16.063Z,18.30
2023-05-24T18:48:44.573Z,18.10
2023-05-24T18:51:13.074Z,18.10
2023-05-24T18:53:41.457Z,18.20
2023-05-24T18:56:09.779Z,18.10
2023-05-24T18:58:38.378Z,18.00
2023-05-24T19:01:09.922Z,17.90
2023-05-24T19:03:39.472Z,17.80
2023-05-24T19:06:08.067Z,17.70
